createdAt,value
2019-05-29T00:04:47.320Z,13.63
2019-05-29T00:09:49.779Z,13.59
2019-05-29T00:14:52.233Z,13.67
2019-05-29T00:19:54.687Z,13.97
2019-05-29T00:24:57.144Z,13.81
2019-05-29T00:29:59.600Z,13.72
2019-05-29T00:35:02.059Z,13.92
2019-05-29T00:40:08.754Z,13.95
2019-05-29T00:45:09.900Z,14.18
2019-05-29T00:50:12.445Z,14.47
2019-05-29T00:55:14.804Z,14.55
2019-05-29T01:00:17.514Z,14.64
2019-05-29T01:05:20.183Z,14.38
2019-05-29T01:10:22.226Z,14.64
2019-05-29T01:15:24.676Z,14.72
2019-05-29T01:20:27.142Z,14.75
2019-05-29T01:25:29.601Z,14.75
2019-05-29T01:30:32.078Z,14.80
2019-05-29T01:35:34.534Z,14.65
2019-05-29T01:40:36.996Z,14.70
2019-05-29T01:45:39.473Z,14.59
2019-05-29T01:50:41.933Z,14.62
2019-05-29T01:55:44.504Z,14.59
2019-05-29T02:00:46.966Z,14.50
2019-05-29T02:05:49.436Z,14.57
2019-05-29T02:10:51.895Z,14.60
2019-05-29T02:15:54.364Z,14.56
2019-05-29T02:20:56.828Z,14.56
2019-05-29T02:25:59.292Z,14.59
2019-05-29T02:31:01.791Z,14.53
2019-05-29T02:36:04.298Z,14.51
2019-05-29T02:41:06.769Z,14.52
2019-05-29T02:46:09.237Z,14.71
2019-05-29T02:51:12.383Z,14.68
2019-05-29T02:56:14.195Z,14.79
2019-05-29T03:01:16.667Z,14.75
2019-05-29T03:06:19.127Z,14.66
2019-05-29T03:11:23.088Z,14.89
2019-05-29T03:16:26.101Z,14.78
2019-05-29T03:21:28.221Z,14.71
2019-05-29T03:26:30.797Z,14.68
2019-05-29T03:31:38.141Z,14.70
2019-05-29T03:36:39.625Z,14.64
2019-05-29T03:41:36.496Z,14.62
2019-05-29T03:46:45.172Z,14.81
2019-05-29T03:51:41.414Z,14.80
2019-05-29T03:56:43.883Z,14.85
2019-05-29T04:01:46.348Z,14.82
2019-05-29T04:06:48.816Z,14.76
2019-05-29T04:11:51.292Z,14.89
2019-05-29T04:16:59.802Z,14.89
2019-05-29T04:21:56.226Z,14.92
2019-05-29T04:26:58.705Z,15.09
2019-05-29T04:32:01.280Z,15.01
2019-05-29T04:37:07.294Z,15.15
2019-05-29T04:42:06.206Z,15.21
2019-05-29T04:47:11.506Z,15.48
2019-05-29T04:52:11.225Z,15.52
2019-05-29T04:57:13.691Z,15.57
2019-05-29T05:02:16.278Z,15.54
2019-05-29T05:07:18.816Z,15.77
2019-05-29T05:12:21.292Z,16.04
2019-05-29T05:17:26.545Z,16.13
2019-05-29T05:22:26.286Z,16.18
2019-05-29T05:27:30.053Z,16.31
2019-05-29T05:32:32.554Z,16.67
2019-05-29T05:37:34.702Z,16.85
2019-05-29T05:42:37.118Z,17.12
2019-05-29T05:47:50.406Z,17.30
2019-05-29T05:52:41.687Z,17.14
2019-05-29T05:57:43.537Z,17.02
2019-05-29T06:02:45.998Z,16.89
2019-05-29T06:07:48.453Z,16.90
2019-05-29T06:12:50.932Z,17.02
2019-05-29T06:18:10.405Z,17.33
2019-05-29T06:22:55.853Z,17.32
2019-05-29T06:27:58.310Z,17.50
2019-05-29T06:33:00.767Z,17.62
2019-05-29T06:38:03.250Z,17.52
2019-05-29T06:43:05.698Z,17.78
2019-05-29T06:48:08.159Z,18.05
2019-05-29T06:53:10.627Z,18.50
2019-05-29T06:58:13.080Z,18.93
2019-05-29T07:03:15.528Z,19.25
2019-05-29T07:08:28.949Z,19.62
2019-05-29T07:13:20.440Z,19.92
2019-05-29T07:18:22.921Z,19.82
2019-05-29T07:23:25.373Z,19.81
2019-05-29T07:28:27.832Z,20.05
2019-05-29T07:33:30.289Z,19.97
2019-05-29T07:38:32.744Z,20.42
2019-05-29T07:43:35.209Z,20.82
2019-05-29T07:48:38.423Z,21.45
2019-05-29T07:53:40.193Z,22.14
2019-05-29T07:58:49.084Z,22.24
2019-05-29T08:03:45.343Z,21.74
2019-05-29T08:08:47.549Z,21.15
2019-05-29T08:13:50.159Z,20.58
2019-05-29T08:18:53.188Z,21.21
2019-05-29T08:23:54.921Z,20.89
2019-05-29T08:28:57.379Z,20.68
2019-05-29T08:33:59.836Z,21.16
2019-05-29T08:39:02.316Z,20.64
2019-05-29T08:44:04.764Z,19.99
2019-05-29T08:49:07.233Z,20.20
2019-05-29T08:54:23.378Z,20.72
2019-05-29T08:59:12.391Z,20.45
2019-05-29T09:04:14.853Z,20.13
2019-05-29T09:09:17.334Z,19.89
2019-05-29T09:14:19.872Z,20.00
2019-05-29T09:19:22.869Z,20.27
2019-05-29T09:24:24.792Z,20.23
2019-05-29T09:29:27.241Z,20.74
2019-05-29T09:34:29.711Z,20.93
2019-05-29T09:39:32.173Z,21.82
2019-05-29T09:44:39.224Z,22.61
2019-05-29T09:49:37.077Z,22.48
2019-05-29T09:54:39.545Z,23.42
2019-05-29T09:59:42.012Z,24.48
2019-05-29T10:04:44.453Z,25.75
2019-05-29T10:09:46.919Z,31.58
2019-05-29T10:14:51.443Z,30.43
2019-05-29T10:19:51.868Z,32.77
2019-05-29T10:24:56.224Z,33.12
2019-05-29T10:29:56.802Z,30.45
2019-05-29T10:34:59.279Z,29.38
2019-05-29T10:40:01.741Z,28.93
2019-05-29T10:45:07.177Z,28.14
2019-05-29T10:50:09.659Z,27.95
2019-05-29T10:55:14.981Z,30.30
2019-05-29T11:00:17.500Z,30.72
2019-05-29T11:05:19.962Z,30.58
2019-05-29T11:10:22.433Z,30.28
2019-05-29T11:15:24.876Z,29.27
2019-05-29T11:20:27.377Z,27.70
2019-05-29T11:25:29.858Z,25.48
2019-05-29T11:30:32.402Z,24.41
2019-05-29T11:35:34.928Z,24.15
2019-05-29T11:40:37.817Z,23.49
2019-05-29T11:45:39.895Z,22.87
2019-05-29T11:50:42.344Z,22.65
2019-05-29T11:55:44.796Z,22.43
2019-05-29T12:00:47.364Z,21.28
2019-05-29T12:05:51.041Z,20.32
2019-05-29T12:10:53.199Z,19.98
2019-05-29T12:15:55.954Z,19.26
2019-05-29T12:20:58.499Z,18.98
2019-05-29T12:26:16.618Z,18.92
2019-05-29T12:31:03.506Z,19.00
2019-05-29T12:36:04.619Z,19.34
2019-05-29T12:41:07.091Z,19.72
2019-05-29T12:46:09.596Z,19.94
2019-05-29T12:51:12.055Z,20.67
2019-05-29T12:56:14.522Z,21.18
2019-05-29T13:01:17.014Z,22.11
2019-05-29T13:06:19.491Z,21.81
2019-05-29T13:11:21.958Z,21.72
2019-05-29T13:16:24.427Z,21.99
2019-05-29T13:21:26.892Z,22.24
2019-05-29T13:26:29.355Z,21.94
2019-05-29T13:31:31.815Z,21.72
2019-05-29T13:36:34.268Z,22.55
2019-05-29T13:41:36.772Z,22.38
2019-05-29T13:46:39.259Z,21.92
2019-05-29T13:51:41.705Z,21.74
2019-05-29T13:56:44.396Z,21.78
2019-05-29T14:01:48.450Z,22.06
2019-05-29T14:06:52.636Z,22.18
2019-05-29T14:11:51.739Z,22.10
2019-05-29T14:16:54.225Z,22.64
2019-05-29T14:21:56.685Z,23.86
2019-05-29T14:26:59.137Z,23.56
2019-05-29T14:32:02.888Z,23.16
2019-05-29T14:37:04.959Z,22.97
2019-05-29T14:42:08.237Z,23.25
2019-05-29T14:47:10.213Z,23.08
2019-05-29T14:52:13.323Z,22.07
2019-05-29T14:57:25.236Z,21.62
2019-05-29T15:02:23.322Z,21.60
2019-05-29T15:07:22.674Z,21.84
2019-05-29T15:12:21.593Z,21.54
2019-05-29T15:17:24.054Z,21.47
2019-05-29T15:22:26.514Z,21.13
2019-05-29T15:27:28.997Z,21.42
2019-05-29T15:32:31.464Z,21.47
2019-05-29T15:37:33.936Z,21.75
2019-05-29T15:42:36.442Z,21.77
2019-05-29T15:47:38.915Z,21.55
2019-05-29T15:52:41.381Z,21.36
2019-05-29T15:57:43.868Z,21.25
2019-05-29T16:02:49.008Z,21.37
2019-05-29T16:07:48.794Z,21.57
2019-05-29T16:12:51.306Z,21.34
2019-05-29T16:17:53.717Z,20.99
2019-05-29T16:22:56.179Z,20.75
2019-05-29T16:27:58.637Z,20.46
2019-05-29T16:33:01.109Z,20.05
2019-05-29T16:38:03.599Z,19.72
2019-05-29T16:43:06.035Z,19.61
2019-05-29T16:48:08.486Z,19.48
2019-05-29T16:53:10.942Z,19.47
2019-05-29T16:58:13.445Z,19.42
2019-05-29T17:03:15.918Z,19.40
2019-05-29T17:08:18.376Z,19.28
2019-05-29T17:13:20.819Z,19.24
2019-05-29T17:18:23.301Z,19.16
2019-05-29T17:23:25.762Z,19.19
2019-05-29T17:28:28.605Z,19.03
2019-05-29T17:33:30.776Z,19.03
2019-05-29T17:38:33.242Z,18.96
2019-05-29T17:43:35.716Z,18.85
2019-05-29T17:48:38.202Z,18.84
2019-05-29T17:53:40.770Z,18.79
2019-05-29T17:58:43.225Z,18.77
2019-05-29T18:03:45.703Z,18.58
2019-05-29T18:08:48.730Z,18.52
2019-05-29T18:13:51.795Z,18.43
2019-05-29T18:18:54.178Z,18.37
2019-05-29T18:23:56.682Z,18.26
2019-05-29T18:28:59.183Z,18.13
2019-05-29T18:34:01.666Z,18.07
2019-05-29T18:39:04.173Z,17.85
2019-05-29T18:44:06.618Z,17.77
2019-05-29T18:49:09.087Z,17.63
2019-05-29T18:54:11.553Z,17.45
2019-05-29T18:59:14.034Z,17.34
2019-05-29T19:04:16.560Z,17.20
2019-05-29T19:09:19.042Z,16.96
2019-05-29T19:14:21.759Z,16.78
2019-05-29T19:19:24.151Z,16.56
2019-05-29T19:24:26.621Z,16.52
2019-05-29T19:29:29.290Z,16.46
2019-05-29T19:34:31.679Z,16.25
2019-05-29T19:39:34.250Z,15.96
2019-05-29T19:44:36.525Z,15.69
2019-05-29T19:49:39.031Z,15.52
2019-05-29T19:54:41.498Z,15.52
2019-05-29T19:59:43.964Z,15.63
2019-05-29T20:04:46.429Z,15.61
2019-05-29T20:09:48.908Z,15.47
2019-05-29T20:14:51.380Z,15.49
2019-05-29T20:19:53.840Z,15.53
2019-05-29T20:24:56.304Z,15.59
2019-05-29T20:29:58.769Z,15.62
2019-05-29T20:35:01.244Z,15.45
2019-05-29T20:40:03.751Z,15.61
2019-05-29T20:45:06.230Z,15.56
2019-05-29T20:50:08.701Z,15.56
2019-05-29T20:55:11.154Z,15.56
2019-05-29T21:00:13.667Z,15.57
2019-05-29T21:05:16.130Z,15.68
2019-05-29T21:10:18.593Z,15.63
2019-05-29T21:15:21.141Z,15.69
2019-05-29T21:20:23.539Z,15.72
2019-05-29T21:25:25.995Z,15.60
2019-05-29T21:30:28.460Z,15.46
2019-05-29T21:35:30.928Z,15.41
2019-05-29T21:40:33.399Z,15.34
2019-05-29T21:45:36.785Z,15.06
2019-05-29T21:50:39.092Z,14.81
2019-05-29T21:55:41.495Z,14.69
2019-05-29T22:00:44.513Z,14.54
2019-05-29T22:05:46.798Z,14.35
2019-05-29T22:10:48.248Z,14.23
2019-05-29T22:15:50.739Z,14.29
2019-05-29T22:20:53.163Z,14.39
2019-05-29T22:25:55.653Z,14.30
2019-05-29T22:30:59.431Z,14.18
2019-05-29T22:36:01.720Z,13.96
2019-05-29T22:41:03.100Z,13.75
2019-05-29T22:46:05.579Z,13.68
2019-05-29T22:51:08.036Z,13.63
2019-05-29T22:56:10.502Z,13.83
2019-05-29T23:01:12.972Z,13.99
2019-05-29T23:06:15.421Z,14.07
2019-05-29T23:11:17.886Z,14.08
2019-05-29T23:16:20.360Z,14.00
2019-05-29T23:21:22.827Z,13.82
2019-05-29T23:26:25.273Z,13.81
2019-05-29T23:31:27.750Z,13.65
2019-05-29T23:36:30.308Z,13.63
2019-05-29T23:41:32.759Z,13.65
2019-05-29T23:46:35.221Z,13.63
2019-05-29T23:51:37.681Z,13.53
2019-05-29T23:56:40.150Z,13.47
